createdAt,value
2023-03-26T00:01:40.737Z,8.45
2023-03-26T00:04:14.316Z,10.23
2023-03-26T00:06:48.889Z,8.07
2023-03-26T00:09:22.433Z,9.40
2023-03-26T00:11:56.561Z,4.93
2023-03-26T00:14:30.474Z,4.65
2023-03-26T00:17:05.388Z,7.22
2023-03-26T00:19:40.342Z,3.53
2023-03-26T00:22:14.365Z,5.30
2023-03-26T00:24:49.426Z,3.63
2023-03-26T00:27:23.065Z,3.40
2023-03-26T00:29:56.942Z,3.63
2023-03-26T00:32:32.622Z,5.20
2023-03-26T00:35:06.880Z,5.25
2023-03-26T00:37:43.137Z,6.32
2023-03-26T00:40:16.680Z,4.22
2023-03-26T00:42:50.254Z,7.80
2023-03-26T00:45:23.802Z,9.25
2023-03-26T00:47:58.726Z,5.32
2023-03-26T00:50:32.226Z,6.07
2023-03-26T00:53:05.681Z,8.50
2023-03-26T00:55:40.574Z,5.85
2023-03-26T00:58:15.095Z,4.88
2023-03-26T01:00:52.948Z,3.35
2023-03-26T01:03:30.357Z,4.78
2023-03-26T01:06:08.220Z,7.38
2023-03-26T01:08:45.018Z,3.58
2023-03-26T01:11:21.771Z,4.03
2023-03-26T01:13:58.284Z,5.88
2023-03-26T01:16:38.072Z,5.30
2023-03-26T01:19:16.578Z,8.05
2023-03-26T01:21:50.444Z,8.10
2023-03-26T01:24:25.371Z,4.85
2023-03-26T01:27:11.837Z,4.43
2023-03-26T01:29:48.251Z,2.78
2023-03-26T01:32:34.711Z,3.47
2023-03-26T01:35:20.755Z,2.92
2023-03-26T01:38:11.010Z,3.20
2023-03-26T01:40:49.845Z,2.95
2023-03-26T01:43:31.528Z,3.28
2023-03-26T01:46:08.241Z,2.30
2023-03-26T01:48:43.859Z,2.55
2023-03-26T01:51:28.903Z,5.25
2023-03-26T01:54:04.229Z,2.45
2023-03-26T01:56:46.008Z,4.25
2023-03-26T01:59:33.391Z,2.60
2023-03-26T02:02:13.972Z,1.95
2023-03-26T02:04:53.514Z,0.88
2023-03-26T02:07:34.617Z,2.88
2023-03-26T02:10:13.793Z,4.93
2023-03-26T02:12:48.830Z,4.68
2023-03-26T02:15:22.523Z,2.45
2023-03-26T02:17:56.027Z,5.00
2023-03-26T02:20:30.096Z,2.10
2023-03-26T02:23:04.176Z,4.25
2023-03-26T02:25:39.928Z,4.10
2023-03-26T02:28:14.832Z,5.93
2023-03-26T02:30:48.392Z,3.90
2023-03-26T02:33:22.200Z,4.32
2023-03-26T02:35:59.560Z,3.75
2023-03-26T02:38:35.191Z,2.72
2023-03-26T02:41:10.044Z,4.95
2023-03-26T02:43:58.677Z,4.10
2023-03-26T02:46:52.173Z,7.93
2023-03-26T02:49:45.617Z,3.83
2023-03-26T02:52:25.742Z,3.17
2023-03-26T02:55:00.724Z,3.80
2023-03-26T02:57:34.984Z,5.45
2023-03-26T03:00:29.093Z,6.75
2023-03-26T03:03:30.042Z,4.87
2023-03-26T03:06:26.524Z,3.45
2023-03-26T03:09:05.164Z,8.15
2023-03-26T03:11:42.562Z,6.53
2023-03-26T03:14:16.386Z,4.53
2023-03-26T03:16:51.306Z,6.93
2023-03-26T03:19:24.823Z,4.78
2023-03-26T03:21:58.288Z,3.17
2023-03-26T03:24:34.103Z,3.58
2023-03-26T03:27:07.749Z,5.10
2023-03-26T03:29:45.606Z,4.43
2023-03-26T03:32:43.352Z,3.55
2023-03-26T03:35:17.358Z,1.98
2023-03-26T03:37:56.032Z,4.30
2023-03-26T03:40:29.801Z,5.30
2023-03-26T03:43:03.352Z,4.95
2023-03-26T03:48:41.097Z,5.25
2023-03-26T03:51:15.547Z,2.58
2023-03-26T03:54:03.336Z,4.47
2023-03-26T03:56:51.854Z,4.03
2023-03-26T03:59:47.612Z,2.33
2023-03-26T04:02:26.751Z,3.28
2023-03-26T04:05:07.403Z,1.98
2023-03-26T04:07:43.963Z,8.77
2023-03-26T04:10:46.781Z,3.38
2023-03-26T04:13:23.044Z,6.72
2023-03-26T04:16:16.560Z,2.08
2023-03-26T04:18:50.156Z,2.53
2023-03-26T04:21:26.372Z,5.47
2023-03-26T04:24:01.826Z,4.00
2023-03-26T04:27:14.161Z,5.63
2023-03-26T04:29:50.825Z,4.70
2023-03-26T04:32:34.220Z,6.78
2023-03-26T04:35:09.116Z,3.75
2023-03-26T04:37:46.160Z,2.65
2023-03-26T04:40:39.997Z,3.38
2023-03-26T04:43:20.545Z,2.83
2023-03-26T04:46:10.675Z,1.92
2023-03-26T04:48:53.802Z,3.28
2023-03-26T04:51:35.008Z,3.95
2023-03-26T04:54:12.851Z,7.72
2023-03-26T04:57:03.750Z,3.57
2023-03-26T04:59:44.217Z,2.30
2023-03-26T05:02:20.277Z,2.80
2023-03-26T05:04:59.524Z,2.65
2023-03-26T05:07:36.804Z,10.07
2023-03-26T05:10:16.164Z,4.55
2023-03-26T05:12:55.696Z,4.55
2023-03-26T05:15:33.063Z,1.65
2023-03-26T05:18:35.835Z,3.33
2023-03-26T05:21:10.863Z,3.85
2023-03-26T05:23:46.320Z,5.03
2023-03-26T05:26:29.319Z,10.07
2023-03-26T05:29:03.611Z,2.80
2023-03-26T05:31:42.851Z,4.82
2023-03-26T05:34:16.451Z,4.85
2023-03-26T05:36:49.943Z,3.97
2023-03-26T05:39:46.239Z,6.18
2023-03-26T05:42:56.419Z,8.23
2023-03-26T05:45:52.980Z,7.05
2023-03-26T05:48:33.388Z,9.05
2023-03-26T05:51:07.964Z,6.55
2023-03-26T05:53:42.007Z,5.25
2023-03-26T05:56:34.151Z,3.95
2023-03-26T05:59:41.655Z,10.45
2023-03-26T06:02:33.844Z,4.57
2023-03-26T06:05:32.602Z,5.68
2023-03-26T06:08:23.875Z,2.88
2023-03-26T06:11:05.590Z,7.22
2023-03-26T06:13:43.546Z,9.85
2023-03-26T06:16:26.346Z,6.97
2023-03-26T06:19:21.612Z,10.95
2023-03-26T06:21:55.239Z,6.72
2023-03-26T06:24:33.509Z,7.22
2023-03-26T06:27:29.099Z,4.35
2023-03-26T06:30:21.070Z,5.20
2023-03-26T06:33:24.495Z,5.68
2023-03-26T06:35:58.585Z,8.52
2023-03-26T06:38:32.435Z,3.97
2023-03-26T06:41:08.950Z,3.88
2023-03-26T06:44:00.935Z,3.40
2023-03-26T06:47:09.539Z,2.22
2023-03-26T06:50:13.875Z,3.38
2023-03-26T06:53:06.979Z,4.50
2023-03-26T06:56:03.624Z,5.80
2023-03-26T06:58:54.579Z,18.05
2023-03-26T07:01:48.049Z,31.90
2023-03-26T07:04:39.771Z,5.32
2023-03-26T07:07:32.853Z,8.32
2023-03-26T07:10:24.968Z,4.07
2023-03-26T07:13:10.522Z,4.07
2023-03-26T07:16:04.338Z,3.50
2023-03-26T07:18:37.849Z,2.63
2023-03-26T07:21:15.085Z,3.60
2023-03-26T07:23:51.001Z,1.90
2023-03-26T07:26:57.451Z,4.30
2023-03-26T07:29:46.482Z,10.13
2023-03-26T07:32:48.668Z,5.05
2023-03-26T07:35:47.738Z,2.47
2023-03-26T07:38:46.546Z,2.08
2023-03-26T07:41:50.332Z,2.55
2023-03-26T07:44:50.783Z,2.72
2023-03-26T07:47:41.236Z,3.53
2023-03-26T07:50:38.220Z,2.80
2023-03-26T07:53:32.428Z,1.23
2023-03-26T07:56:19.198Z,2.70
2023-03-26T07:59:30.552Z,1.98
2023-03-26T08:02:43.179Z,1.02
2023-03-26T08:05:52.282Z,2.88
2023-03-26T08:08:43.320Z,0.93
2023-03-26T08:11:45.058Z,0.88
2023-03-26T08:14:33.456Z,7.10
2023-03-26T08:17:11.663Z,5.75
2023-03-26T08:19:58.123Z,1.23
2023-03-26T08:22:36.781Z,0.88
2023-03-26T08:25:27.621Z,1.85
2023-03-26T08:28:23.453Z,1.75
2023-03-26T08:30:58.873Z,4.68
2023-03-26T08:33:35.043Z,3.53
2023-03-26T08:36:10.509Z,1.95
2023-03-26T08:38:46.371Z,0.40
2023-03-26T08:42:00.543Z,0.45
2023-03-26T08:45:31.431Z,1.85
2023-03-26T08:48:39.333Z,3.20
2023-03-26T08:51:57.787Z,2.97
2023-03-26T08:55:04.990Z,4.47
2023-03-26T08:58:10.459Z,0.65
2023-03-26T09:01:17.739Z,4.15
2023-03-26T09:04:18.251Z,1.63
2023-03-26T09:07:14.486Z,1.40
2023-03-26T09:10:33.603Z,3.28
2023-03-26T09:13:29.531Z,1.60
2023-03-26T09:16:41.750Z,3.65
2023-03-26T09:19:52.327Z,1.88
2023-03-26T09:23:19.860Z,1.80
2023-03-26T09:26:27.722Z,1.45
2023-03-26T09:29:37.632Z,2.05
2023-03-26T09:32:43.753Z,0.70
2023-03-26T09:35:37.942Z,1.73
2023-03-26T09:38:29.672Z,2.22
2023-03-26T09:41:09.834Z,1.40
2023-03-26T09:44:12.779Z,3.30
2023-03-26T09:46:58.663Z,0.47
2023-03-26T09:49:45.472Z,0.47
2023-03-26T09:52:37.977Z,9.57
2023-03-26T09:55:46.078Z,2.00
2023-03-26T09:58:42.557Z,4.93
2023-03-26T10:01:21.091Z,0.95
2023-03-26T10:04:22.682Z,2.38
2023-03-26T10:07:01.689Z,3.22
2023-03-26T10:09:46.058Z,3.00
2023-03-26T10:12:32.911Z,2.50
2023-03-26T10:15:21.153Z,4.88
2023-03-26T10:18:27.880Z,2.72
2023-03-26T10:21:08.335Z,4.35
2023-03-26T10:24:01.581Z,2.85
2023-03-26T10:27:09.032Z,1.92
2023-03-26T10:30:13.380Z,0.60
2023-03-26T10:32:58.936Z,1.27
2023-03-26T10:35:46.156Z,2.65
2023-03-26T10:38:31.162Z,0.60
2023-03-26T10:41:11.508Z,2.97
2023-03-26T10:44:17.897Z,0.98
2023-03-26T10:47:15.646Z,1.90
2023-03-26T10:50:23.501Z,0.73
2023-03-26T10:53:04.025Z,3.60
2023-03-26T10:55:40.540Z,1.38
2023-03-26T10:58:22.905Z,2.45
2023-03-26T11:01:00.921Z,2.63
2023-03-26T11:03:52.113Z,3.00
2023-03-26T11:06:32.380Z,2.88
2023-03-26T11:09:18.246Z,2.45
2023-03-26T11:11:59.252Z,1.20
2023-03-26T11:14:41.689Z,0.75
2023-03-26T11:17:40.753Z,2.03
2023-03-26T11:20:21.045Z,2.55
2023-03-26T11:23:06.083Z,0.40
2023-03-26T11:25:52.831Z,1.27
2023-03-26T11:28:40.510Z,5.03
2023-03-26T11:31:20.987Z,1.95
2023-03-26T11:33:59.903Z,1.50
2023-03-26T11:36:39.528Z,0.95
2023-03-26T11:39:16.652Z,1.95
2023-03-26T11:41:52.022Z,2.03
2023-03-26T11:44:39.133Z,3.35
2023-03-26T11:47:15.671Z,0.65
2023-03-26T11:49:51.153Z,0.70
2023-03-26T11:52:26.971Z,0.65
2023-03-26T11:55:00.502Z,0.32
2023-03-26T11:57:38.067Z,0.47
2023-03-26T12:00:18.018Z,0.22
2023-03-26T12:02:56.893Z,0.73
2023-03-26T12:05:36.718Z,1.27
2023-03-26T12:08:21.209Z,2.42
2023-03-26T12:11:08.915Z,0.45
2023-03-26T12:13:45.768Z,1.60
2023-03-26T12:16:21.885Z,0.52
2023-03-26T12:19:06.275Z,0.77
2023-03-26T12:21:47.001Z,0.52
2023-03-26T12:24:30.862Z,0.38
2023-03-26T12:27:22.580Z,0.40
2023-03-26T12:30:01.230Z,1.15
2023-03-26T12:32:45.769Z,1.30
2023-03-26T12:35:27.983Z,5.18
2023-03-26T12:38:25.717Z,0.60
2023-03-26T12:42:52.869Z,0.30
2023-03-26T12:44:53.671Z,0.30
2023-03-26T12:47:58.788Z,0.47
2023-03-26T12:50:17.047Z,0.40
2023-03-26T12:53:18.016Z,1.83
2023-03-26T12:55:58.509Z,8.80
2023-03-26T12:58:58.735Z,0.57
2023-03-26T13:01:43.021Z,1.13
2023-03-26T13:04:40.355Z,0.38
2023-03-26T13:07:22.578Z,0.73
2023-03-26T13:10:34.504Z,0.98
2023-03-26T13:13:37.819Z,2.53
2023-03-26T13:16:21.746Z,0.70
2023-03-26T13:18:59.776Z,0.20
2023-03-26T13:21:45.544Z,0.65
2023-03-26T13:24:28.549Z,1.77
2023-03-26T13:27:14.821Z,0.28
2023-03-26T13:29:56.538Z,1.23
2023-03-26T13:32:42.592Z,0.57
2023-03-26T13:35:27.055Z,0.32
2023-03-26T13:38:12.115Z,1.17
2023-03-26T13:40:56.666Z,0.17
2023-03-26T13:43:52.486Z,0.82
2023-03-26T13:46:33.440Z,1.33
2023-03-26T13:49:15.614Z,0.77
2023-03-26T13:51:53.732Z,0.47
2023-03-26T13:54:33.917Z,2.10
2023-03-26T13:57:16.220Z,0.05
2023-03-26T13:59:56.024Z,1.08
2023-03-26T14:02:36.316Z,2.08
2023-03-26T14:05:16.703Z,0.20
2023-03-26T14:07:53.943Z,0.82
2023-03-26T14:10:34.333Z,0.57
2023-03-26T14:13:17.422Z,0.30
2023-03-26T14:15:55.079Z,2.85
2023-03-26T14:18:36.630Z,0.30
2023-03-26T14:21:40.793Z,2.38
2023-03-26T14:25:02.918Z,2.67
2023-03-26T14:27:51.230Z,0.10
2023-03-26T14:30:48.243Z,0.40
2023-03-26T14:33:43.916Z,0.20
2023-03-26T14:36:28.037Z,0.70
2023-03-26T14:39:35.221Z,0.35
2023-03-26T14:42:19.062Z,2.17
2023-03-26T14:45:25.517Z,2.67
2023-03-26T14:48:32.093Z,0.98
2023-03-26T14:51:19.619Z,0.43
2023-03-26T14:53:56.742Z,0.30
2023-03-26T14:56:55.759Z,0.52
2023-03-26T14:59:58.547Z,5.72
2023-03-26T15:03:17.455Z,1.30
2023-03-26T15:06:33.455Z,0.63
2023-03-26T15:09:43.251Z,0.95
2023-03-26T15:12:32.822Z,0.68
2023-03-26T15:15:54.388Z,0.50
2023-03-26T15:18:58.294Z,1.30
2023-03-26T15:25:00.698Z,4.18
2023-03-26T15:28:12.261Z,2.38
2023-03-26T15:31:21.221Z,2.25
2023-03-26T15:34:15.128Z,0.82
2023-03-26T15:37:22.317Z,0.40
2023-03-26T15:40:11.394Z,1.52
2023-03-26T15:42:59.678Z,2.70
2023-03-26T15:45:38.197Z,2.33
2023-03-26T15:48:37.827Z,3.78
2023-03-26T15:51:29.538Z,6.72
2023-03-26T15:54:10.896Z,19.98
2023-03-26T15:57:00.677Z,24.75
2023-03-26T15:59:49.375Z,34.22
2023-03-26T16:02:34.693Z,33.58
2023-03-26T16:05:31.124Z,9.95
2023-03-26T16:08:15.711Z,2.90
2023-03-26T16:10:53.338Z,1.55
2023-03-26T16:13:37.688Z,2.60
2023-03-26T16:16:52.955Z,6.30
2023-03-26T16:19:51.963Z,5.95
2023-03-26T16:22:47.413Z,3.72
2023-03-26T16:25:29.526Z,6.72
2023-03-26T16:28:27.649Z,3.58
2023-03-26T16:31:37.468Z,4.10
2023-03-26T16:34:28.017Z,3.30
2023-03-26T16:37:01.663Z,3.30
2023-03-26T16:39:43.699Z,16.23
2023-03-26T16:42:37.825Z,11.30
2023-03-26T16:45:28.657Z,9.30
2023-03-26T16:48:15.566Z,19.95
2023-03-26T16:50:56.218Z,16.63
2023-03-26T16:53:41.826Z,18.85
2023-03-26T16:56:23.613Z,12.00
2023-03-26T16:59:00.496Z,7.57
2023-03-26T17:01:44.463Z,18.95
2023-03-26T17:04:23.520Z,10.15
2023-03-26T17:07:14.106Z,13.60
2023-03-26T17:10:03.670Z,17.77
2023-03-26T17:12:41.626Z,26.17
2023-03-26T17:15:29.821Z,40.00
2023-03-26T17:18:20.109Z,30.05
2023-03-26T17:21:02.000Z,23.25
2023-03-26T17:23:59.500Z,38.27
2023-03-26T17:26:47.432Z,17.58
2023-03-26T17:29:28.241Z,18.13
2023-03-26T17:32:08.622Z,26.90
2023-03-26T17:35:00.722Z,29.45
2023-03-26T17:37:47.812Z,33.10
2023-03-26T17:40:31.706Z,27.83
2023-03-26T17:43:11.189Z,43.88
2023-03-26T17:45:47.116Z,35.83
2023-03-26T17:48:39.281Z,42.28
2023-03-26T17:51:28.934Z,38.17
2023-03-26T17:54:07.332Z,43.22
2023-03-26T17:56:42.556Z,48.85
2023-03-26T17:59:23.415Z,34.03
2023-03-26T18:02:01.000Z,40.97
2023-03-26T18:04:37.648Z,27.33
2023-03-26T18:07:35.221Z,32.63
2023-03-26T18:10:28.842Z,40.15
2023-03-26T18:13:35.225Z,43.70
2023-03-26T18:16:14.933Z,45.47
2023-03-26T18:18:52.671Z,44.22
2023-03-26T18:21:31.408Z,55.90
2023-03-26T18:24:07.840Z,44.92
2023-03-26T18:26:46.844Z,44.13
2023-03-26T18:29:24.336Z,39.85
2023-03-26T18:32:00.831Z,32.40
2023-03-26T18:34:36.577Z,23.70
2023-03-26T18:37:17.821Z,29.33
2023-03-26T18:40:07.516Z,25.63
2023-03-26T18:42:45.590Z,29.08
2023-03-26T18:45:27.694Z,41.88
2023-03-26T18:48:04.639Z,36.15
2023-03-26T18:50:42.111Z,39.58
2023-03-26T18:53:20.738Z,36.05
2023-03-26T18:55:54.664Z,36.03
2023-03-26T18:58:32.888Z,26.33
2023-03-26T19:01:19.943Z,21.98
2023-03-26T19:04:02.261Z,16.88
2023-03-26T19:06:40.016Z,24.63
2023-03-26T19:09:30.435Z,21.45
2023-03-26T19:12:09.291Z,23.27
2023-03-26T19:14:56.715Z,24.75
2023-03-26T19:17:34.445Z,19.80
2023-03-26T19:20:14.963Z,49.13
2023-03-26T19:22:49.762Z,21.35
2023-03-26T19:25:26.637Z,24.63
2023-03-26T19:28:00.738Z,21.58
2023-03-26T19:30:40.712Z,25.50
2023-03-26T19:33:18.421Z,26.35
2023-03-26T19:35:54.966Z,23.38
2023-03-26T19:38:30.151Z,31.02
2023-03-26T19:41:04.192Z,31.83
2023-03-26T19:43:38.011Z,29.67
2023-03-26T19:46:15.678Z,34.22
2023-03-26T19:48:51.918Z,31.85
2023-03-26T19:51:32.227Z,23.02
2023-03-26T19:54:15.925Z,32.55
2023-03-26T19:56:49.688Z,38.80
2023-03-26T19:59:23.892Z,26.88
2023-03-26T20:01:59.099Z,28.80
2023-03-26T20:04:33.022Z,31.90
2023-03-26T20:07:14.596Z,37.15
2023-03-26T20:09:48.119Z,41.08
2023-03-26T20:12:26.036Z,43.53
2023-03-26T20:14:59.616Z,34.25
2023-03-26T20:17:34.867Z,33.10
2023-03-26T20:20:12.164Z,34.17
2023-03-26T20:22:46.928Z,39.90
2023-03-26T20:25:22.936Z,38.83
2023-03-26T20:27:58.357Z,37.13
2023-03-26T20:30:37.869Z,36.00
2023-03-26T20:33:25.312Z,39.28
2023-03-26T20:36:00.072Z,31.98
2023-03-26T20:38:39.412Z,38.40
2023-03-26T20:41:15.543Z,34.00
2023-03-26T20:43:49.213Z,31.00
2023-03-26T20:46:30.900Z,38.47
2023-03-26T20:49:06.680Z,40.05
2023-03-26T20:51:41.979Z,33.38
2023-03-26T20:54:18.063Z,29.15
2023-03-26T20:56:52.493Z,34.88
2023-03-26T20:59:27.931Z,33.40
2023-03-26T21:02:01.641Z,37.28
2023-03-26T21:04:36.525Z,35.00
2023-03-26T21:07:17.790Z,38.13
2023-03-26T21:09:52.626Z,33.97
2023-03-26T21:12:31.326Z,35.45
2023-03-26T21:15:13.482Z,43.10
2023-03-26T21:17:51.849Z,34.17
2023-03-26T21:20:29.005Z,39.80
2023-03-26T21:23:11.502Z,39.42
2023-03-26T21:25:53.948Z,36.55
2023-03-26T21:28:39.820Z,37.70
2023-03-26T21:31:19.384Z,33.97
2023-03-26T21:33:55.227Z,37.75
2023-03-26T21:36:30.925Z,43.80
2023-03-26T21:39:06.428Z,37.13
2023-03-26T21:41:46.011Z,41.45
2023-03-26T21:44:21.468Z,42.47
2023-03-26T21:46:55.596Z,31.27
2023-03-26T21:49:30.000Z,33.80
2023-03-26T21:52:05.673Z,37.65
2023-03-26T21:54:39.945Z,33.53
2023-03-26T21:57:37.820Z,32.20
2023-03-26T22:00:15.703Z,32.63
2023-03-26T22:03:02.246Z,24.10
2023-03-26T22:05:43.302Z,24.45
2023-03-26T22:08:26.625Z,30.70
2023-03-26T22:11:00.130Z,31.55
2023-03-26T22:13:35.486Z,25.17
2023-03-26T22:16:11.732Z,25.80
2023-03-26T22:18:45.325Z,31.05
2023-03-26T22:21:18.899Z,26.10
2023-03-26T22:23:54.226Z,29.75
2023-03-26T22:26:27.696Z,29.00
2023-03-26T22:29:01.529Z,29.98
2023-03-26T22:31:36.213Z,27.42
2023-03-26T22:34:10.261Z,28.27
2023-03-26T22:36:43.721Z,29.52
2023-03-26T22:39:18.567Z,24.63
2023-03-26T22:41:52.040Z,24.88
2023-03-26T22:44:25.579Z,25.17
2023-03-26T22:46:59.041Z,26.88
2023-03-26T22:49:32.487Z,30.08
2023-03-26T22:52:06.184Z,25.25
2023-03-26T22:54:41.013Z,27.83
2023-03-26T22:57:14.978Z,30.58
2023-03-26T22:59:48.503Z,28.90
2023-03-26T23:02:22.064Z,26.35
2023-03-26T23:04:55.709Z,29.65
2023-03-26T23:07:29.294Z,24.92
2023-03-26T23:10:04.534Z,28.02
2023-03-26T23:12:38.085Z,30.40
2023-03-26T23:15:12.552Z,22.50
2023-03-26T23:17:54.652Z,24.60
2023-03-26T23:23:03.472Z,26.80
2023-03-26T23:25:39.027Z,28.92
2023-03-26T23:28:12.505Z,26.77
2023-03-26T23:30:48.828Z,27.92
2023-03-26T23:33:23.393Z,24.20
2023-03-26T23:35:57.848Z,23.98
2023-03-26T23:38:43.431Z,22.65
2023-03-26T23:41:21.762Z,23.98
2023-03-26T23:43:55.934Z,22.85
2023-03-26T23:46:33.141Z,23.88
2023-03-26T23:49:06.641Z,29.15
2023-03-26T23:51:40.143Z,19.17
2023-03-26T23:54:13.731Z,21.15
2023-03-26T23:56:49.176Z,21.75
2023-03-26T23:59:23.200Z,27.58
